Terminal Aerodrome Forecast
Issued by NWS North Platte, NE

Home | Current Version | Previous Version | Text Only | Print | Product List | Glossary On
Versions: 1 2 3 4 5 6 7 8 9 10 11
683
FTUS43 KLBF 261721
TAFLBF
TAF
KLBF 261721Z 2618/2718 15007KT P6SM FEW200
     FM262100 15012KT P6SM SCT200
     FM270000 14010KT P6SM FEW070 BKN200 PROB30 2703/2709 VRB20G35KT
      5SM -TSRA BKN070CB
     FM270900 VRB06KT P6SM BKN200
     FM271300 VRB06KT P6SM SKC=

USA.gov is the U.S. government's official web portal to all federal, state and local government web resources and services.